Herculaneum, MO

11:40 PM CST on February 21, 2017 (GMT -0600)
Joachim Golf Club | | Change Station
Active Advisory: Dense Fog Advisory

Elev 387 ft 38.26 °N, 90.39 °W | Updated 9 seconds ago

Overcast
Overcast
50.9 °F
Feels Like 50.9 °F
N
1.7
Wind Variable Wind from WNW

Today
High -- | Low -- °F
--% Chance of Precip.
Yesterday
High -- | Low -- °F
Precip. -- in
Pressure 29.88 in
Visibility 5.0 miles
Clouds Clear
Dew Point 50 °F
Humidity 97%
Rainfall 0.02 in
Snow Depth Not available.
6:43 AM 5:46 PM
Waning Crescent, 20% visible
METAR KCPS 220453Z AUTO 00000KT 5SM BR CLR 11/10 A2989 RMK AO2 SLP119 T01110100 TSNO
Pressure 29.88 in
Visibility 5.0 miles
Clouds Clear
Dew Point 50 °F
Humidity 97%
Rainfall 0.02 in
Snow Depth Not available.
6:43 AM 5:46 PM
Waning Crescent, 20% visible
METAR KCPS 220453Z AUTO 00000KT 5SM BR CLR 11/10 A2989 RMK AO2 SLP119 T01110100 TSNO

Get Your Daily Forecast Email!

Thanks for signing up!

Be on the lookout for a verification email in your inbox.

You'll start receiving the daily forecast at 8 AM.

×

10-Day Weather Forecast

Almanac

Astronomy

Feb. 21, 2017 Rise Set
Actual Time
Civil Twilight
Nautical Twilight
Astronomical Twilight
Moon
Length of Visible Light
Length of Day
Tomorrow will be .
, % of the Moon is Illuminated

Today's Extremes

State Highs State Lows

Community

WunderPhotos

Upload Photos

1,962,540 photos uploaded!

WunderBlog® & News

Nearby

Air Quality

  Air Quality AQ Index Pollutant
Not available.

Snow Depth

Station Depth Elevation

Earthquake Activity

City Distance Mag. Time & Date
Minimum magnitude displayed is 2.5.

Coastal Water Temperatures

Place Temperature

Stations

Nearby Weather Stations

Station Location Temp. Windchill Dew Point Humidity Wind Precip. Elev Updated Type
                   

Watches & Warnings

Dense Fog Advisory
Issued: 10:42 PM CST Feb. 21, 2017 – National Weather Service

... Dense fog advisory in effect until 9 am CST Wednesday...

The National Weather Service in Saint Louis has issued a dense
fog advisory, which is in effect until 9 am CST Wednesday.

* Timing... fog will continue to develop and expand becoming dense
late tonight and early Wednesday morning.

* Visibilities... visibilities of one-quarter mile or less at
times are expected.

* Impacts... rapid changes in visibility will cause hazardous
driving conditions.

Precautionary/preparedness actions...

A dense fog advisory is issued when dense fog will substantially
reduce visibilities, to one-quarter mile or less, resulting in
hazardous driving conditions in many areas. Motorists are advised
to use caution and slow down, as objects on and near roadways
will be seen only at close range.



Gks